createdAt,value
2019-02-09T00:01:51.826Z,81.81
2019-02-09T00:04:21.779Z,81.70
2019-02-09T00:06:52.006Z,81.83
2019-02-09T00:09:22.810Z,81.99
2019-02-09T00:11:52.854Z,81.71
2019-02-09T00:14:23.001Z,81.82
2019-02-09T00:16:52.681Z,81.73
2019-02-09T00:19:21.922Z,81.47
2019-02-09T00:21:52.080Z,81.79
2019-02-09T00:24:22.135Z,82.21
2019-02-09T00:26:52.053Z,80.75
2019-02-09T00:29:22.318Z,80.98
2019-02-09T00:31:52.525Z,81.99
2019-02-09T00:34:22.518Z,83.24
2019-02-09T00:36:52.500Z,83.30
2019-02-09T00:39:22.085Z,83.30
2019-02-09T00:41:51.722Z,84.13
2019-02-09T00:44:20.458Z,83.35
2019-02-09T00:46:50.324Z,83.85
2019-02-09T00:49:21.400Z,83.85
2019-02-09T00:51:52.487Z,83.14
2019-02-09T00:54:22.119Z,83.45
2019-02-09T00:56:52.067Z,82.71
2019-02-09T00:59:22.176Z,82.04
2019-02-09T01:01:51.942Z,82.34
2019-02-09T01:04:22.024Z,82.83
2019-02-09T01:06:52.062Z,83.14
2019-02-09T01:09:22.036Z,82.01
2019-02-09T01:11:51.639Z,81.84
2019-02-09T01:14:21.359Z,82.37
2019-02-09T01:16:51.840Z,81.01
2019-02-09T01:19:21.598Z,81.01
2019-02-09T01:21:50.470Z,80.74
2019-02-09T01:24:20.443Z,80.29
2019-02-09T01:26:50.082Z,80.29
2019-02-09T01:29:19.658Z,80.69
2019-02-09T01:31:49.050Z,81.96
2019-02-09T01:34:19.143Z,81.96
2019-02-09T01:36:48.804Z,82.29
2019-02-09T01:39:18.308Z,82.89
2019-02-09T01:41:48.055Z,83.19
2019-02-09T01:44:18.100Z,81.69
2019-02-09T01:46:47.800Z,81.84
2019-02-09T01:49:17.686Z,81.59
2019-02-09T01:51:46.554Z,82.38
2019-02-09T01:54:16.313Z,81.29
2019-02-09T01:56:46.000Z,81.29
2019-02-09T01:59:15.619Z,80.86
2019-02-09T02:01:45.632Z,81.47
2019-02-09T02:04:14.529Z,81.47
2019-02-09T02:06:44.315Z,79.56
2019-02-09T02:09:14.122Z,79.56
2019-02-09T02:11:43.792Z,78.89
2019-02-09T02:14:13.635Z,78.37
2019-02-09T02:16:43.316Z,77.47
2019-02-09T02:19:12.820Z,77.47
2019-02-09T02:21:42.517Z,77.76
2019-02-09T02:24:11.796Z,77.99
2019-02-09T02:26:41.324Z,76.24
2019-02-09T02:29:11.580Z,76.29
2019-02-09T02:31:40.604Z,74.25
2019-02-09T02:34:10.526Z,73.41
2019-02-09T02:36:39.984Z,73.41
2019-02-09T02:39:11.035Z,73.79
2019-02-09T02:41:40.968Z,73.63
2019-02-09T02:44:10.808Z,74.04
2019-02-09T02:46:41.516Z,74.04
2019-02-09T02:49:11.022Z,74.38
2019-02-09T02:51:42.098Z,74.07
2019-02-09T02:54:11.648Z,74.44
2019-02-09T02:56:41.049Z,74.44
2019-02-09T02:59:10.514Z,74.44
2019-02-09T03:01:40.082Z,74.23
2019-02-09T03:04:09.940Z,74.12
2019-02-09T03:06:39.544Z,73.55
2019-02-09T03:09:09.631Z,74.64
2019-02-09T03:11:38.926Z,74.62
2019-02-09T03:14:08.644Z,73.60
2019-02-09T03:16:39.139Z,73.69
2019-02-09T03:19:08.969Z,73.69
2019-02-09T03:21:38.517Z,73.88
2019-02-09T03:24:08.131Z,73.57
2019-02-09T03:26:37.634Z,73.44
2019-02-09T03:29:08.640Z,73.07
2019-02-09T03:31:37.934Z,72.24
2019-02-09T03:34:07.512Z,72.11
2019-02-09T03:36:37.322Z,66.43
2019-02-09T03:39:08.504Z,66.43
2019-02-09T03:41:38.033Z,67.63
2019-02-09T03:44:08.320Z,68.15
2019-02-09T03:46:38.317Z,65.93
2019-02-09T03:49:07.796Z,62.60
2019-02-09T03:51:37.556Z,59.43
2019-02-09T03:54:07.150Z,57.70
2019-02-09T03:56:36.618Z,56.49
2019-02-09T03:59:05.285Z,55.68
2019-02-09T04:01:34.812Z,55.54
2019-02-09T04:04:04.486Z,55.79
2019-02-09T04:06:34.498Z,57.08
2019-02-09T04:09:06.267Z,57.26
2019-02-09T04:11:36.140Z,57.26
2019-02-09T04:14:05.972Z,57.13
2019-02-09T04:16:35.599Z,57.47
2019-02-09T04:19:04.549Z,58.75
2019-02-09T04:21:34.057Z,58.75
2019-02-09T04:24:03.967Z,59.10
2019-02-09T04:26:33.622Z,59.16
2019-02-09T04:29:02.464Z,59.58
2019-02-09T04:31:32.105Z,59.71
2019-02-09T04:34:02.528Z,59.71
2019-02-09T04:36:32.521Z,59.73
2019-02-09T04:39:03.327Z,59.73
2019-02-09T04:41:33.976Z,59.92
2019-02-09T04:44:04.669Z,59.70
2019-02-09T04:46:34.417Z,61.58
2019-02-09T04:49:04.564Z,64.85
2019-02-09T04:51:34.321Z,66.81
2019-02-09T04:56:43.159Z,66.89
2019-02-09T04:59:13.538Z,67.70
2019-02-09T05:01:42.990Z,68.28
2019-02-09T05:04:12.963Z,68.20
2019-02-09T05:06:42.777Z,68.91
2019-02-09T05:09:13.115Z,68.41
2019-02-09T05:11:42.993Z,68.92
2019-02-09T05:14:12.721Z,68.10
2019-02-09T05:16:43.322Z,68.13
2019-02-09T05:19:13.512Z,68.11
2019-02-09T05:21:43.631Z,68.11
2019-02-09T05:24:13.525Z,69.50
2019-02-09T05:26:43.316Z,69.50
2019-02-09T05:29:13.066Z,70.04
2019-02-09T05:31:42.581Z,70.67
2019-02-09T05:34:12.523Z,70.56
2019-02-09T05:36:42.070Z,70.56
2019-02-09T05:39:12.452Z,71.06
2019-02-09T05:41:42.544Z,71.12
2019-02-09T05:44:12.019Z,70.79
2019-02-09T05:46:41.652Z,71.19
2019-02-09T05:49:11.100Z,71.54
2019-02-09T05:51:41.015Z,71.54
2019-02-09T05:54:11.052Z,71.11
2019-02-09T05:56:40.879Z,71.49
2019-02-09T05:59:11.412Z,71.75
2019-02-09T06:01:40.773Z,72.19
2019-02-09T06:04:09.815Z,72.28
2019-02-09T06:06:38.981Z,72.53
2019-02-09T06:09:08.850Z,72.23
2019-02-09T06:11:38.504Z,72.78
2019-02-09T06:14:08.124Z,72.48
2019-02-09T06:16:37.908Z,72.48
2019-02-09T06:19:07.658Z,72.57
2019-02-09T06:21:36.520Z,73.41
2019-02-09T06:24:06.520Z,73.41
2019-02-09T06:26:36.556Z,72.86
2019-02-09T06:29:06.577Z,72.86
2019-02-09T06:31:40.955Z,72.66
2019-02-09T06:35:19.686Z,72.41
2019-02-09T06:39:37.077Z,72.34
2019-02-09T06:42:13.135Z,71.37
2019-02-09T06:44:43.034Z,70.82
2019-02-09T06:47:13.835Z,71.58
2019-02-09T06:49:43.509Z,71.57
2019-02-09T06:52:13.412Z,71.68
2019-02-09T06:54:43.027Z,71.25
2019-02-09T06:57:13.015Z,71.06
2019-02-09T06:59:43.033Z,70.83
2019-02-09T07:02:15.561Z,70.52
2019-02-09T07:04:45.550Z,70.89
2019-02-09T07:07:15.325Z,70.44
2019-02-09T07:09:44.976Z,70.44
2019-02-09T07:12:14.636Z,70.70
2019-02-09T07:14:44.328Z,70.54
2019-02-09T07:17:14.325Z,70.54
2019-02-09T07:19:44.328Z,69.73
2019-02-09T07:22:14.070Z,70.44
2019-02-09T07:24:44.851Z,69.02
2019-02-09T07:27:14.825Z,68.02
2019-02-09T07:29:44.770Z,67.48
2019-02-09T07:32:14.305Z,68.47
2019-02-09T07:34:44.513Z,68.93
2019-02-09T07:37:14.712Z,68.71
2019-02-09T07:39:44.311Z,67.66
2019-02-09T07:42:13.980Z,67.17
2019-02-09T07:44:43.998Z,66.12
2019-02-09T07:47:13.909Z,65.62
2019-02-09T07:49:43.626Z,65.81
2019-02-09T07:52:12.472Z,65.77
2019-02-09T07:54:42.065Z,65.86
2019-02-09T07:57:11.775Z,65.91
2019-02-09T07:59:41.137Z,65.56
2019-02-09T08:02:10.798Z,65.65
2019-02-09T08:04:40.755Z,65.47
2019-02-09T08:07:09.490Z,64.18
2019-02-09T08:09:39.496Z,64.56
2019-02-09T08:12:09.326Z,64.92
2019-02-09T08:14:39.005Z,64.92
2019-02-09T08:17:08.898Z,64.85
2019-02-09T08:19:38.788Z,62.98
2019-02-09T08:22:09.316Z,61.67
2019-02-09T08:24:39.073Z,60.74
2019-02-09T08:27:08.635Z,61.84
2019-02-09T08:29:37.798Z,61.74
2019-02-09T08:32:12.552Z,60.86
2019-02-09T08:34:38.607Z,59.24
2019-02-09T08:37:07.539Z,59.95
2019-02-09T08:39:37.323Z,61.15
2019-02-09T08:42:07.072Z,61.15
2019-02-09T08:44:36.981Z,60.78
2019-02-09T08:47:06.931Z,60.94
2019-02-09T08:49:37.582Z,60.84
2019-02-09T08:52:06.837Z,60.77
2019-02-09T08:54:36.635Z,61.27
2019-02-09T08:57:06.028Z,52.60
2019-02-09T08:59:36.113Z,40.77
2019-02-09T09:02:05.885Z,32.55
2019-02-09T09:04:35.503Z,30.29
2019-02-09T09:07:05.360Z,27.87
2019-02-09T09:09:34.797Z,27.48
2019-02-09T09:12:04.329Z,31.37
2019-02-09T09:14:34.044Z,35.13
2019-02-09T09:17:03.788Z,39.79
2019-02-09T09:19:33.668Z,43.09
2019-02-09T09:22:02.489Z,45.55
2019-02-09T09:24:32.315Z,47.22
2019-02-09T09:27:02.150Z,47.22
2019-02-09T09:29:32.321Z,47.17
2019-02-09T09:32:02.548Z,46.48
2019-02-09T09:34:32.631Z,46.74
2019-02-09T09:37:02.654Z,46.74
2019-02-09T09:39:33.737Z,46.43
2019-02-09T09:42:03.659Z,44.11
2019-02-09T09:44:32.727Z,41.08
2019-02-09T09:47:02.311Z,38.46
2019-02-09T09:49:32.318Z,35.78
2019-02-09T09:52:02.029Z,31.67
2019-02-09T09:54:32.038Z,32.76
2019-02-09T09:57:02.492Z,35.21
2019-02-09T09:59:32.037Z,37.27
2019-02-09T10:02:02.304Z,39.14
2019-02-09T10:04:32.139Z,41.00
2019-02-09T10:07:02.024Z,43.23
2019-02-09T10:09:31.843Z,44.48
2019-02-09T10:12:01.793Z,46.57
2019-02-09T10:14:31.543Z,48.10
2019-02-09T10:17:00.706Z,50.23
2019-02-09T10:19:29.699Z,50.23
2019-02-09T10:21:59.696Z,52.83
2019-02-09T10:24:29.786Z,55.51
2019-02-09T10:26:59.578Z,60.49
2019-02-09T10:29:28.474Z,60.57
2019-02-09T10:31:58.301Z,62.64
2019-02-09T10:34:28.092Z,62.64
2019-02-09T10:36:57.802Z,60.64
2019-02-09T10:39:27.643Z,63.32
2019-02-09T10:41:57.443Z,55.60
2019-02-09T10:44:27.801Z,55.60
2019-02-09T10:46:57.619Z,52.60
2019-02-09T10:49:26.678Z,49.59
2019-02-09T10:51:56.439Z,47.60
2019-02-09T10:54:26.121Z,45.91
2019-02-09T10:56:56.044Z,45.91
2019-02-09T10:59:26.432Z,46.49
2019-02-09T11:01:56.201Z,47.70
2019-02-09T11:04:26.628Z,45.20
2019-02-09T11:06:56.583Z,48.66
2019-02-09T11:09:26.878Z,47.13
2019-02-09T11:11:56.820Z,47.31
2019-02-09T11:14:26.992Z,45.67
2019-02-09T11:16:57.140Z,47.21
2019-02-09T11:19:26.974Z,46.13
2019-02-09T11:21:57.641Z,47.43
2019-02-09T11:24:27.309Z,44.42
2019-02-09T11:26:57.061Z,44.42
2019-02-09T11:29:27.866Z,43.43
2019-02-09T11:31:58.074Z,41.85
2019-02-09T11:34:29.073Z,42.17
2019-02-09T11:36:58.640Z,40.88
2019-02-09T11:39:32.031Z,40.65
2019-02-09T11:42:02.368Z,41.38
2019-02-09T11:44:32.513Z,41.89
2019-02-09T11:47:02.311Z,42.72
2019-02-09T11:49:32.730Z,42.45
2019-02-09T11:52:02.208Z,42.68
2019-02-09T11:54:32.132Z,42.16
2019-02-09T11:57:02.165Z,42.78
2019-02-09T11:59:31.984Z,42.69
2019-02-09T12:02:01.591Z,43.15
2019-02-09T12:04:30.475Z,43.96
2019-02-09T12:07:00.310Z,44.33
2019-02-09T12:09:30.128Z,44.33
2019-02-09T12:11:59.812Z,45.44
2019-02-09T12:14:30.063Z,46.61
2019-02-09T12:17:00.019Z,50.93
2019-02-09T12:19:29.635Z,54.05
2019-02-09T12:22:00.556Z,55.95
2019-02-09T12:24:30.351Z,51.33
2019-02-09T12:27:00.144Z,51.33
2019-02-09T12:29:29.621Z,47.95
2019-02-09T12:31:58.743Z,46.37
2019-02-09T12:34:28.827Z,43.14
2019-02-09T12:36:58.827Z,42.67
2019-02-09T12:39:28.324Z,42.24
2019-02-09T12:41:58.572Z,41.87
2019-02-09T12:44:29.527Z,39.85
2019-02-09T12:46:59.526Z,40.94
2019-02-09T12:49:29.316Z,40.94
2019-02-09T12:51:59.133Z,41.68
2019-02-09T12:54:28.691Z,42.16
2019-02-09T12:56:59.170Z,43.50
2019-02-09T12:59:34.024Z,44.01
2019-02-09T13:04:27.318Z,45.56
2019-02-09T13:06:57.141Z,46.77
2019-02-09T13:09:27.058Z,45.94
2019-02-09T13:11:57.174Z,45.77
2019-02-09T13:14:27.079Z,45.75
2019-02-09T13:16:57.011Z,46.11
2019-02-09T13:19:26.567Z,45.91
2019-02-09T13:21:56.426Z,45.67
2019-02-09T13:24:26.520Z,45.67
2019-02-09T13:26:56.564Z,45.52
2019-02-09T13:29:26.540Z,45.46
2019-02-09T13:31:56.319Z,45.46
2019-02-09T13:34:25.831Z,45.67
2019-02-09T13:36:55.646Z,45.68
2019-02-09T13:39:24.512Z,46.97
2019-02-09T13:41:54.572Z,47.54
2019-02-09T13:44:23.958Z,47.54
2019-02-09T13:46:53.914Z,46.85
2019-02-09T13:49:23.662Z,47.06
2019-02-09T13:51:52.579Z,47.56
2019-02-09T13:54:22.266Z,47.79
2019-02-09T13:56:52.308Z,47.84
2019-02-09T13:59:22.116Z,48.07
2019-02-09T14:01:52.165Z,48.30
2019-02-09T14:04:21.982Z,48.83
2019-02-09T14:06:52.012Z,49.15
2019-02-09T14:09:21.964Z,49.63
2019-02-09T14:11:53.386Z,49.34
2019-02-09T14:14:23.490Z,49.31
2019-02-09T14:16:52.948Z,49.57
2019-02-09T14:19:23.249Z,50.21
2019-02-09T14:21:53.068Z,51.12
2019-02-09T14:24:22.644Z,51.03
2019-02-09T14:26:51.892Z,51.83
2019-02-09T14:29:22.306Z,52.40
2019-02-09T14:31:52.142Z,52.00
2019-02-09T14:34:21.811Z,52.23
2019-02-09T14:36:52.590Z,52.00
2019-02-09T14:39:22.633Z,51.86
2019-02-09T14:41:52.536Z,51.73
2019-02-09T14:44:22.667Z,51.46
2019-02-09T14:46:51.638Z,50.20
2019-02-09T14:49:21.027Z,50.20
2019-02-09T14:51:50.933Z,50.37
2019-02-09T14:54:21.032Z,49.96
2019-02-09T14:56:51.811Z,50.13
2019-02-09T14:59:21.911Z,50.09
2019-02-09T15:01:51.810Z,50.58
2019-02-09T15:04:22.150Z,50.20
2019-02-09T15:06:53.570Z,49.51
2019-02-09T15:09:23.622Z,49.59
2019-02-09T15:11:53.450Z,49.11
2019-02-09T15:14:23.859Z,50.14
2019-02-09T15:16:55.966Z,50.14
2019-02-09T15:19:35.715Z,49.78
2019-02-09T15:22:05.803Z,49.66
2019-02-09T15:24:36.016Z,49.56
2019-02-09T15:27:06.394Z,49.99
2019-02-09T15:29:36.589Z,49.75
2019-02-09T15:32:07.698Z,49.75
2019-02-09T15:34:37.989Z,49.39
2019-02-09T15:37:07.877Z,49.79
2019-02-09T15:39:38.171Z,50.00
2019-02-09T15:42:08.328Z,50.29
2019-02-09T15:44:38.049Z,51.18
2019-02-09T15:47:08.046Z,51.66
2019-02-09T15:49:38.078Z,51.46
2019-02-09T15:52:08.133Z,51.80
2019-02-09T15:54:38.175Z,52.15
2019-02-09T15:57:07.726Z,52.34
2019-02-09T15:59:37.777Z,52.32
2019-02-09T16:02:07.594Z,52.25
2019-02-09T16:04:36.443Z,52.92
2019-02-09T16:07:06.393Z,52.79
2019-02-09T16:09:35.779Z,53.01
2019-02-09T16:12:05.812Z,53.07
2019-02-09T16:14:35.834Z,53.24
2019-02-09T16:17:05.582Z,53.24
2019-02-09T16:19:34.631Z,53.42
2019-02-09T16:22:04.476Z,53.49
2019-02-09T16:24:34.330Z,53.23
2019-02-09T16:27:04.522Z,54.63
2019-02-09T16:29:35.312Z,53.21
2019-02-09T16:32:06.084Z,53.21
2019-02-09T16:34:37.048Z,53.48
2019-02-09T16:37:07.037Z,53.08
2019-02-09T16:39:37.094Z,53.33
2019-02-09T16:42:06.983Z,54.14
2019-02-09T16:44:36.867Z,54.15
2019-02-09T16:47:06.633Z,53.68
2019-02-09T16:49:36.314Z,54.00
2019-02-09T16:52:06.321Z,54.00
2019-02-09T16:54:35.881Z,53.99
2019-02-09T16:57:05.649Z,54.19
2019-02-09T16:59:35.597Z,54.03
2019-02-09T17:02:05.325Z,54.50
2019-02-09T17:04:35.657Z,54.50
2019-02-09T17:07:05.306Z,53.71
2019-02-09T17:09:35.495Z,53.06
2019-02-09T17:12:05.109Z,52.92
2019-02-09T17:14:34.599Z,52.48
2019-02-09T17:17:03.480Z,52.85
2019-02-09T17:19:33.523Z,52.73
2019-02-09T17:22:03.342Z,52.67
2019-02-09T17:24:33.323Z,52.67
2019-02-09T17:27:03.520Z,51.97
2019-02-09T17:29:33.525Z,51.29
2019-02-09T17:32:03.229Z,50.84
2019-02-09T17:34:40.639Z,50.84
2019-02-09T17:37:05.373Z,51.10
2019-02-09T17:39:35.465Z,51.37
2019-02-09T17:42:05.437Z,51.52
2019-02-09T17:44:35.382Z,50.60
2019-02-09T17:47:05.295Z,50.60
2019-02-09T17:49:35.115Z,49.95
2019-02-09T17:52:05.067Z,50.73
2019-02-09T17:54:34.994Z,50.30
2019-02-09T17:57:04.822Z,50.29
2019-02-09T17:59:34.602Z,50.71
2019-02-09T18:02:03.924Z,51.23
2019-02-09T18:04:33.618Z,51.90
2019-02-09T18:07:03.526Z,52.04
2019-02-09T18:09:33.480Z,52.29
2019-02-09T18:12:03.321Z,51.81
2019-02-09T18:14:33.328Z,51.81
2019-02-09T18:17:03.160Z,52.27
2019-02-09T18:19:33.167Z,52.52
2019-02-09T18:22:03.462Z,52.60
2019-02-09T18:24:33.642Z,53.48
2019-02-09T18:27:02.800Z,53.48
2019-02-09T18:29:33.031Z,54.10
2019-02-09T18:32:03.162Z,53.94
2019-02-09T18:34:33.403Z,53.71
2019-02-09T18:37:03.526Z,53.94
2019-02-09T18:39:33.585Z,54.46
2019-02-09T18:42:02.813Z,54.46
2019-02-09T18:44:33.016Z,54.42
2019-02-09T18:47:02.823Z,53.80
2019-02-09T18:49:32.817Z,53.88
2019-02-09T18:52:03.147Z,54.00
2019-02-09T18:54:33.339Z,54.37
2019-02-09T18:57:03.489Z,54.90
2019-02-09T18:59:33.650Z,54.43
2019-02-09T19:02:02.616Z,54.43
2019-02-09T19:04:32.426Z,55.13
2019-02-09T19:07:02.547Z,55.11
2019-02-09T19:09:32.615Z,55.68
2019-02-09T19:12:01.719Z,55.68
2019-02-09T19:14:32.040Z,55.62
2019-02-09T19:17:02.065Z,55.77
2019-02-09T19:19:33.121Z,56.41
2019-02-09T19:22:03.101Z,56.35
2019-02-09T19:24:34.167Z,56.43
2019-02-09T19:27:04.148Z,56.10
2019-02-09T19:29:33.823Z,56.60
2019-02-09T19:32:03.841Z,57.42
2019-02-09T19:34:33.994Z,57.36
2019-02-09T19:37:04.046Z,56.55
2019-02-09T19:39:34.331Z,56.62
2019-02-09T19:42:06.318Z,56.35
2019-02-09T19:44:36.363Z,56.18
2019-02-09T19:47:08.016Z,56.62
2019-02-09T19:49:38.308Z,57.09
2019-02-09T19:52:08.472Z,57.51
2019-02-09T19:54:38.523Z,58.12
2019-02-09T19:57:08.339Z,58.22
2019-02-09T19:59:38.308Z,58.22
2019-02-09T20:02:08.193Z,58.29
2019-02-09T20:04:38.075Z,58.50
2019-02-09T20:07:07.752Z,59.25
2019-02-09T20:09:38.162Z,59.79
2019-02-09T20:12:07.639Z,60.55
2019-02-09T20:14:37.566Z,60.42
2019-02-09T20:17:07.638Z,60.16
2019-02-09T20:19:36.735Z,60.16
2019-02-09T20:24:50.496Z,58.95
2019-02-09T20:27:20.683Z,58.11
2019-02-09T20:29:50.670Z,58.11
2019-02-09T20:32:21.607Z,59.15
2019-02-09T20:34:50.777Z,59.48
2019-02-09T20:37:21.121Z,60.53
2019-02-09T20:39:51.169Z,61.55
2019-02-09T20:42:21.328Z,62.67
2019-02-09T20:44:51.377Z,63.24
2019-02-09T20:47:21.324Z,62.95
2019-02-09T20:49:51.032Z,62.88
2019-02-09T20:52:21.338Z,62.77
2019-02-09T20:54:52.303Z,63.05
2019-02-09T20:57:22.464Z,62.58
2019-02-09T20:59:52.873Z,64.88
2019-02-09T21:02:22.669Z,64.88
2019-02-09T21:04:52.564Z,66.82
2019-02-09T21:07:24.519Z,66.08
2019-02-09T21:09:54.445Z,66.08
2019-02-09T21:12:24.316Z,67.32
2019-02-09T21:14:54.306Z,68.01
2019-02-09T21:17:24.489Z,68.36
2019-02-09T21:19:54.556Z,68.53
2019-02-09T21:22:23.512Z,68.53
2019-02-09T21:24:53.530Z,69.24
2019-02-09T21:27:23.308Z,70.23
2019-02-09T21:29:53.143Z,70.23
2019-02-09T21:32:23.574Z,70.02
2019-02-09T21:34:52.506Z,70.65
2019-02-09T21:37:22.398Z,70.98
2019-02-09T21:39:52.645Z,70.98
2019-02-09T21:42:21.759Z,71.23
2019-02-09T21:44:51.569Z,71.16
2019-02-09T21:47:20.635Z,71.12
2019-02-09T21:49:49.955Z,70.68
2019-02-09T21:52:19.964Z,70.01
2019-02-09T21:54:49.834Z,70.21
2019-02-09T21:57:19.846Z,70.05
2019-02-09T21:59:51.145Z,70.60
2019-02-09T22:02:21.009Z,71.05
2019-02-09T22:04:50.827Z,70.89
2019-02-09T22:07:21.051Z,70.80
2019-02-09T22:09:51.844Z,71.12
2019-02-09T22:12:21.539Z,70.90
2019-02-09T22:14:51.628Z,71.15
2019-02-09T22:17:20.878Z,71.02
2019-02-09T22:19:51.093Z,71.11
2019-02-09T22:22:21.064Z,70.99
2019-02-09T22:24:51.092Z,71.44
2019-02-09T22:27:21.297Z,71.10
2019-02-09T22:29:51.039Z,71.43
2019-02-09T22:32:21.037Z,72.17
2019-02-09T22:34:50.835Z,72.60
2019-02-09T22:37:20.861Z,72.78
2019-02-09T22:39:50.842Z,72.58
2019-02-09T22:42:20.856Z,72.47
2019-02-09T22:44:50.682Z,72.65
2019-02-09T22:47:20.925Z,72.39
2019-02-09T22:49:50.821Z,72.66
2019-02-09T22:52:20.543Z,70.85
2019-02-09T22:54:49.726Z,70.70
2019-02-09T22:57:19.651Z,71.14
2019-02-09T22:59:48.729Z,71.05
2019-02-09T23:02:18.559Z,71.65
2019-02-09T23:05:38.267Z,72.31
2019-02-09T23:08:08.317Z,72.31
2019-02-09T23:10:38.117Z,72.43
2019-02-09T23:13:08.309Z,72.25
2019-02-09T23:15:38.323Z,72.50
2019-02-09T23:18:08.107Z,71.94
2019-02-09T23:20:38.136Z,72.00
2019-02-09T23:23:08.524Z,73.10
2019-02-09T23:25:38.634Z,74.00
2019-02-09T23:28:08.622Z,74.00
2019-02-09T23:30:38.033Z,74.47
2019-02-09T23:33:07.812Z,74.78
2019-02-09T23:35:37.695Z,75.01
2019-02-09T23:38:07.647Z,74.36
2019-02-09T23:40:36.614Z,74.36
2019-02-09T23:43:06.578Z,73.73
2019-02-09T23:45:38.377Z,73.73
2019-02-09T23:48:08.108Z,73.87
2019-02-09T23:50:37.711Z,73.16
2019-02-09T23:53:06.938Z,74.24
2019-02-09T23:55:37.050Z,74.36
2019-02-09T23:58:06.825Z,74.53
